首页
METAR-TAF:

METAR-TAF

机场 :

突尼斯-迦太基国际机场

突尼斯, 突尼斯

纬度: 36-50N, 经度: 010-14E, 海拔: 3米

当前天气观测

该预报发布于12分钟前的14:00 UTC
风速17节,风向
温度 30°C
湿度 46%
气压 1015 hPa
能见度10公里或以上
散云层高于3000英尺

METAR: DTTA 191400Z 35017KT 9999 SCT030 30/17 Q1015 NOSIG

时间: 15:12 (14:12 UTC)

预报

该预报发布于3小时和5分钟前的11:07 UTC
预报有效从19日的 12点(UTC)到 20日的 12点(UTC)
风速17节,风向
能见度10公里或以上
1500米以下无云,无积雨云
成为
从 19日的 22点(UTC)到 19日的 24点(UTC)
风速7节,风向

TAF: DTTA 191107Z 1912/2012 35017KT CAVOK BECMG 1922/1924 35007KT

超过4000个机场的气象观测和天气预报(METAR&TAF报告)。

可查询的气象台以黄色和红色小点在地图上表示。

将鼠标移到小点上方,可查看气象台名称。

然后点击查看天气观测和预报。

如需切换地图:点击带黑十字的绿色按钮放大地图;点击带横线的绿色按钮缩小地图;或者点击绿色箭头查看邻近地区的地图。


METAR-TAF: